Time;durP1;ratioP1;P1;durP2;ratioP2;P2;SDS_P1;SDS_P2;PMS_P1;PMS_P2;Temp;Humidity;BMP_temperature;BMP_pressure;BME280_temperature;BME280_humidity;BME280_pressure;Samples;Min_cycle;Max_cycle;Signal;HPM_P1;HPM_P2
2022/08/09 00:00:03;;;;;;;9.45;5.05;;;15.10;99.90;;;;;;10366324;28;20555;-84
2022/08/09 00:05:05;;;;;;;11.82;4.47;;;15.00;99.90;;;;;;10367525;28;20358;-82
2022/08/09 00:10:05;;;;;;;8.55;4.32;;;15.00;99.90;;;;;;10362390;28;20701;-82
2022/08/09 00:15:07;;;;;;;8.65;4.38;;;15.00;99.90;;;;;;10363804;28;20049;-82
2022/08/09 00:20:08;;;;;;;7.75;4.30;;;15.00;99.90;;;;;;10361125;28;20054;-82
2022/08/09 00:25:09;;;;;;;6.50;3.97;;;15.00;99.90;;;;;;10364508;28;20083;-83
2022/08/09 00:30:10;;;;;;;10.98;4.15;;;14.90;99.90;;;;;;10364754;28;20042;-82
2022/08/09 00:35:10;;;;;;;6.95;4.15;;;14.80;99.90;;;;;;10365820;28;20049;-83
2022/08/09 00:40:11;;;;;;;7.18;3.75;;;14.50;99.90;;;;;;10361449;28;20042;-82
2022/08/09 00:45:11;;;;;;;6.65;3.78;;;14.30;99.90;;;;;;10362807;28;20116;-83
2022/08/09 00:50:12;;;;;;;8.43;4.50;;;14.20;99.90;;;;;;10366593;28;20037;-83
2022/08/09 00:55:13;;;;;;;5.55;3.90;;;14.30;99.90;;;;;;10364539;28;20061;-83
2022/08/09 01:00:14;;;;;;;9.25;4.07;;;14.20;99.90;;;;;;10360884;28;20030;-83
2022/08/09 01:05:21;;;;;;;7.60;4.03;;;14.10;99.90;;;;;;10363532;28;20600;-82
2022/08/09 01:10:24;;;;;;;8.45;4.63;;;14.20;99.90;;;;;;10360918;28;20037;-83
2022/08/09 01:15:29;;;;;;;4.82;3.50;;;14.30;99.90;;;;;;10358959;28;20038;-84
2022/08/09 01:20:53;;;;;;;5.05;3.90;;;14.30;99.90;;;;;;10355813;28;20037;-83
2022/08/09 01:26:32;;;;;;;7.47;4.25;;;14.30;99.90;;;;;;10345603;28;20146;-83
2022/08/09 01:31:36;;;;;;;7.78;4.10;;;14.20;99.90;;;;;;10336386;28;20508;-83
2022/08/09 01:36:39;;;;;;;6.50;4.10;;;14.20;99.90;;;;;;10361185;28;20053;-81
2022/08/09 01:41:41;;;;;;;9.45;3.90;;;14.30;99.90;;;;;;10364955;28;20072;-82
2022/08/09 01:46:43;;;;;;;8.43;4.43;;;14.30;99.90;;;;;;10361974;28;20033;-82
2022/08/09 01:51:47;;;;;;;7.47;4.35;;;14.30;99.90;;;;;;10360601;28;20042;-83
2022/08/09 01:56:50;;;;;;;12.13;4.78;;;14.30;99.90;;;;;;10342960;28;20099;-83
2022/08/09 02:01:53;;;;;;;6.22;4.18;;;14.30;99.90;;;;;;10359157;28;20532;-82
2022/08/09 02:07:11;;;;;;;9.50;4.32;;;14.20;99.90;;;;;;10362614;28;20030;-84
2022/08/09 02:12:13;;;;;;;6.25;4.10;;;14.10;99.90;;;;;;10360322;28;20144;-82
2022/08/09 02:17:15;;;;;;;7.65;4.43;;;14.00;99.90;;;;;;10359170;28;20050;-82
2022/08/09 02:22:26;;;;;;;7.93;4.78;;;13.80;99.90;;;;;;10363403;28;20034;-83
2022/08/09 02:27:29;;;;;;;7.88;4.28;;;13.80;99.90;;;;;;10339823;28;20647;-83
2022/08/09 02:32:36;;;;;;;12.75;5.13;;;13.70;99.90;;;;;;10361335;28;20508;-82
2022/08/09 02:37:41;;;;;;;8.80;4.50;;;13.70;99.90;;;;;;10361670;28;20044;-83
2022/08/09 02:42:45;;;;;;;6.70;4.10;;;13.50;99.90;;;;;;10368971;28;20037;-82
2022/08/09 02:47:47;;;;;;;6.57;4.40;;;13.40;99.90;;;;;;10363012;28;20030;-83
2022/08/09 02:53:00;;;;;;;7.55;4.50;;;13.20;99.90;;;;;;10370891;28;20033;-82
2022/08/09 02:58:01;;;;;;;6.05;4.38;;;12.90;99.90;;;;;;10369262;28;20085;-84
2022/08/09 03:03:04;;;;;;;7.32;4.85;;;12.80;99.90;;;;;;10366582;28;20025;-83
2022/08/09 03:08:07;;;;;;;7.93;5.15;;;12.70;99.90;;;;;;10366034;28;20030;-83
2022/08/09 03:13:08;;;;;;;8.40;4.97;;;12.60;99.90;;;;;;10369138;28;20026;-82
2022/08/09 03:18:10;;;;;;;8.80;5.05;;;12.50;99.90;;;;;;10363876;28;20037;-81
2022/08/09 03:23:12;;;;;;;9.13;5.07;;;12.70;99.90;;;;;;10360304;28;20650;-82
2022/08/09 03:28:13;;;;;;;9.63;4.75;;;13.00;99.90;;;;;;10362647;28;20025;-82
2022/08/09 03:33:15;;;;;;;12.13;5.50;;;13.30;99.90;;;;;;10362936;28;20045;-81
2022/08/09 03:38:16;;;;;;;9.38;4.85;;;13.40;99.90;;;;;;10352963;28;20045;-82
2022/08/09 03:43:17;;;;;;;9.68;4.53;;;13.40;99.90;;;;;;10368840;28;20035;-81
2022/08/09 03:48:19;;;;;;;9.35;4.75;;;13.50;99.90;;;;;;10365090;28;20483;-81
2022/08/09 03:53:21;;;;;;;7.22;4.30;;;13.50;99.90;;;;;;10364108;28;20508;-82
2022/08/09 03:58:21;;;;;;;9.82;5.13;;;13.40;99.90;;;;;;10363999;28;20144;-80
2022/08/09 04:03:23;;;;;;;11.52;5.50;;;13.50;99.90;;;;;;10359571;28;20108;-82
2022/08/09 04:08:23;;;;;;;8.45;5.00;;;13.50;99.90;;;;;;10365796;28;20144;-81
2022/08/09 04:13:24;;;;;;;9.65;4.63;;;13.50;99.90;;;;;;10362902;28;20032;-79
2022/08/09 04:18:24;;;;;;;8.23;5.50;;;13.60;99.90;;;;;;10367652;28;20041;-81
2022/08/09 04:23:26;;;;;;;8.60;4.75;;;13.60;99.90;;;;;;10352437;28;20049;-79
2022/08/09 04:28:27;;;;;;;7.07;4.88;;;13.60;99.90;;;;;;10351694;28;20040;-80
2022/08/09 04:33:27;;;;;;;7.95;4.57;;;13.70;99.90;;;;;;10352077;28;20481;-82
2022/08/09 04:38:28;;;;;;;10.05;4.70;;;13.80;99.90;;;;;;10358434;28;20132;-84
2022/08/09 04:43:28;;;;;;;11.52;4.50;;;13.90;99.90;;;;;;10365496;28;20083;-82
2022/08/09 04:48:29;;;;;;;8.20;4.38;;;14.00;99.90;;;;;;10356005;28;20052;-81
2022/08/09 04:53:29;;;;;;;9.45;4.95;;;14.10;99.90;;;;;;10343148;28;20037;-82
2022/08/09 04:58:30;;;;;;;8.68;4.80;;;14.30;99.90;;;;;;10316736;28;20664;-82
2022/08/09 05:03:31;;;;;;;8.27;4.85;;;14.50;99.90;;;;;;10322397;28;20042;-82
2022/08/09 05:08:33;;;;;;;6.97;4.47;;;14.60;99.90;;;;;;10321484;28;20073;-81
2022/08/09 05:13:34;;;;;;;9.23;4.55;;;14.80;99.90;;;;;;10325125;28;20030;-82
2022/08/09 05:18:35;;;;;;;12.80;5.00;;;14.90;99.90;;;;;;10321612;28;20421;-83
2022/08/09 05:23:36;;;;;;;9.52;4.68;;;15.00;99.90;;;;;;10322285;28;20030;-83
2022/08/09 05:28:36;;;;;;;9.30;4.50;;;15.30;99.90;;;;;;10323033;28;20022;-82
2022/08/09 05:33:37;;;;;;;5.78;4.13;;;15.50;99.90;;;;;;10317651;28;20377;-82
2022/08/09 05:38:37;;;;;;;8.85;4.05;;;15.70;99.90;;;;;;10320229;28;20383;-83
2022/08/09 05:43:38;;;;;;;5.32;3.97;;;15.90;99.90;;;;;;10323070;28;20042;-83
2022/08/09 05:48:38;;;;;;;7.22;3.80;;;16.20;99.90;;;;;;10323553;28;20037;-82
2022/08/09 05:53:39;;;;;;;8.65;3.33;;;16.40;99.90;;;;;;10323357;28;20030;-83
2022/08/09 05:58:40;;;;;;;6.30;3.40;;;16.80;99.90;;;;;;10357096;28;20124;-82
2022/08/09 06:03:40;;;;;;;6.85;4.32;;;17.10;99.90;;;;;;10363554;28;20030;-82
2022/08/09 06:08:41;;;;;;;10.07;4.63;;;17.40;99.90;;;;;;10360262;28;20026;-81
2022/08/09 06:13:43;;;;;;;9.25;4.72;;;17.60;99.90;;;;;;10353664;28;20456;-83
2022/08/09 06:18:44;;;;;;;13.80;4.93;;;18.00;99.90;;;;;;10358721;28;20093;-81
2022/08/09 06:23:46;;;;;;;10.63;4.72;;;18.20;99.90;;;;;;10363772;28;20037;-83
2022/08/09 06:28:47;;;;;;;9.82;4.25;;;18.50;99.90;;;;;;10354719;28;20030;-82
2022/08/09 06:33:48;;;;;;;7.10;3.70;;;18.70;99.70;;;;;;10361104;28;20370;-81
2022/08/09 06:38:48;;;;;;;5.85;3.08;;;18.90;99.60;;;;;;10361736;28;20050;-82
2022/08/09 06:43:49;;;;;;;7.10;3.13;;;19.10;97.90;;;;;;10344079;28;20029;-82
2022/08/09 06:48:50;;;;;;;6.65;2.45;;;19.30;95.40;;;;;;10355746;28;20036;-82
2022/08/09 06:53:50;;;;;;;4.07;2.20;;;19.60;93.90;;;;;;10358811;28;20040;-83
2022/08/09 06:58:51;;;;;;;5.45;2.17;;;19.80;91.50;;;;;;10363829;28;20120;-82
2022/08/09 07:03:51;;;;;;;3.63;2.05;;;20.10;90.20;;;;;;10363831;28;20040;-82
2022/08/09 07:08:52;;;;;;;3.45;1.42;;;20.30;88.60;;;;;;10361518;28;20548;-82
2022/08/09 07:13:52;;;;;;;5.35;1.80;;;20.60;90.00;;;;;;10362732;28;20036;-81
2022/08/09 07:18:53;;;;;;;2.67;1.35;;;21.40;88.90;;;;;;10363288;28;20478;-82
2022/08/09 07:23:53;;;;;;;2.88;1.30;;;22.80;82.40;;;;;;10362351;28;20030;-82
2022/08/09 07:28:54;;;;;;;4.50;1.70;;;23.70;78.60;;;;;;10365092;28;20052;-82
2022/08/09 07:33:55;;;;;;;3.95;1.73;;;23.60;74.70;;;;;;10362873;28;20033;-83
2022/08/09 07:38:56;;;;;;;2.63;1.67;;;23.50;75.20;;;;;;10367591;28;20034;-83
2022/08/09 07:43:57;;;;;;;5.50;2.38;;;23.10;74.00;;;;;;10369109;28;20026;-82
2022/08/09 07:48:58;;;;;;;6.75;2.30;;;23.20;74.40;;;;;;10363459;28;20452;-84
2022/08/09 07:53:58;;;;;;;5.38;2.05;;;23.20;73.30;;;;;;10366326;28;20033;-82
2022/08/09 07:58:59;;;;;;;4.50;1.80;;;23.30;75.20;;;;;;10368088;28;20108;-81
2022/08/09 08:04:01;;;;;;;19.25;2.83;;;23.70;74.10;;;;;;10366244;28;20040;-83
2022/08/09 08:09:02;;;;;;;2.70;1.80;;;23.70;70.50;;;;;;10368741;28;20026;-84
2022/08/09 08:14:03;;;;;;;3.95;1.42;;;23.80;69.70;;;;;;10368262;28;20072;-82
2022/08/09 08:19:03;;;;;;;2.22;1.30;;;23.80;67.80;;;;;;10368418;28;20124;-82
2022/08/09 08:24:04;;;;;;;3.20;1.50;;;24.00;67.70;;;;;;10365566;28;20076;-82
2022/08/09 08:29:05;;;;;;;4.15;1.30;;;24.40;68.00;;;;;;10368240;28;20101;-82
2022/08/09 08:34:05;;;;;;;2.67;1.08;;;24.10;65.50;;;;;;10367733;28;20528;-82
2022/08/09 08:39:06;;;;;;;3.95;1.50;;;24.10;65.80;;;;;;10369050;28;20033;-82
2022/08/09 08:44:08;;;;;;;2.53;1.35;;;24.30;65.10;;;;;;10367371;28;20029;-85
2022/08/09 08:49:11;;;;;;;4.50;1.02;;;24.60;64.30;;;;;;10348307;28;20033;-83
2022/08/09 08:54:13;;;;;;;2.25;1.45;;;24.70;66.20;;;;;;10346769;28;20030;-82
2022/08/09 08:59:13;;;;;;;2.92;1.30;;;24.70;65.50;;;;;;10367658;28;20058;-82
2022/08/09 09:04:16;;;;;;;3.92;1.23;;;25.00;62.20;;;;;;10363230;28;20639;-82
2022/08/09 09:09:19;;;;;;;6.35;1.15;;;25.00;64.40;;;;;;10363906;28;20048;-82
2022/08/09 09:14:22;;;;;;;1.58;0.95;;;25.60;62.70;;;;;;10363302;28;20041;-83
2022/08/09 09:19:23;;;;;;;4.85;0.95;;;25.40;61.90;;;;;;10335541;28;20025;-82
2022/08/09 09:24:29;;;;;;;2.15;1.52;;;25.00;63.30;;;;;;10362990;28;20028;-83
2022/08/09 09:29:40;;;;;;;2.42;1.15;;;24.80;64.80;;;;;;10359777;28;20822;-82
2022/08/09 09:34:42;;;;;;;2.08;1.40;;;24.60;63.70;;;;;;10334137;28;20124;-83
2022/08/09 09:39:52;;;;;;;4.60;0.95;;;24.30;64.40;;;;;;10352148;28;20128;-82
2022/08/09 09:45:02;;;;;;;2.22;1.15;;;24.70;61.00;;;;;;10355224;28;20030;-82
2022/08/09 09:50:03;;;;;;;1.70;1.00;;;25.00;59.40;;;;;;10356979;28;20363;-80
2022/08/09 09:55:07;;;;;;;1.58;1.15;;;24.80;61.40;;;;;;10359528;28;20058;-82
2022/08/09 10:00:22;;;;;;;9.02;1.70;;;25.00;62.30;;;;;;10362031;28;20045;-81
2022/08/09 10:05:24;;;;;;;3.38;1.38;;;25.40;61.30;;;;;;10351943;28;20744;-81
2022/08/09 10:10:29;;;;;;;3.13;1.05;;;25.80;59.60;;;;;;10361725;28;20068;-80
2022/08/09 10:15:30;;;;;;;2.13;1.40;;;25.90;62.70;;;;;;10357855;28;20046;-81
2022/08/09 10:20:30;;;;;;;1.73;1.33;;;25.70;60.30;;;;;;10364852;28;20590;-81
2022/08/09 10:25:33;;;;;;;2.38;1.33;;;25.30;61.40;;;;;;10338361;28;20026;-81
2022/08/09 10:30:34;;;;;;;4.18;1.70;;;24.80;62.80;;;;;;10355464;28;20017;-82
2022/08/09 10:35:35;;;;;;;2.20;1.25;;;24.00;64.20;;;;;;10345722;28;20490;-81
2022/08/09 10:40:37;;;;;;;3.33;1.52;;;24.30;63.10;;;;;;10355626;28;20045;-80
2022/08/09 10:45:42;;;;;;;5.28;3.40;;;24.50;62.80;;;;;;10352095;28;20138;-81
2022/08/09 10:51:11;;;;;;;254.00;174.15;;;25.20;63.70;;;;;;10343600;28;20022;-81
2022/08/09 10:56:18;;;;;;;21.25;11.63;;;25.40;59.70;;;;;;10355866;28;20052;-83
2022/08/09 11:01:31;;;;;;;112.18;69.72;;;25.50;60.50;;;;;;10361961;28;20022;-81
2022/08/09 11:06:34;;;;;;;30.02;18.77;;;26.40;64.40;;;;;;10366743;28;20032;-81
2022/08/09 11:11:53;;;;;;;88.43;61.80;;;26.20;61.50;;;;;;10349275;28;20065;-81
2022/08/09 11:16:55;;;;;;;31.90;25.40;;;25.50;59.70;;;;;;10358035;28;20630;-81
2022/08/09 11:21:57;;;;;;;5.43;4.75;;;25.80;62.60;;;;;;10350361;28;20014;-81
2022/08/09 11:26:58;;;;;;;2.90;1.67;;;26.80;62.00;;;;;;10368694;28;20037;-82
2022/08/09 11:31:59;;;;;;;9.45;6.68;;;25.90;60.40;;;;;;10354389;28;20026;-81
2022/08/09 11:37:02;;;;;;;9.40;6.15;;;25.20;65.90;;;;;;10366067;28;20421;-81
2022/08/09 11:42:08;;;;;;;4.22;2.45;;;25.70;62.10;;;;;;10367745;28;20030;-82
2022/08/09 11:47:08;;;;;;;2.38;1.30;;;25.60;62.50;;;;;;10368892;28;20062;-81
2022/08/09 11:52:09;;;;;;;6.18;3.88;;;26.00;60.70;;;;;;10348009;28;20131;-81
2022/08/09 11:57:35;;;;;;;1.83;1.20;;;26.10;60.30;;;;;;10363996;28;20088;-82
2022/08/09 12:02:39;;;;;;;3.42;1.40;;;26.50;62.10;;;;;;10359021;28;20034;-81
2022/08/09 12:07:39;;;;;;;4.95;1.38;;;26.80;59.20;;;;;;10365124;28;20037;-83
2022/08/09 12:12:47;;;;;;;2.15;1.10;;;26.40;59.10;;;;;;10362127;28;20034;-81
2022/08/09 12:17:49;;;;;;;3.03;1.38;;;26.00;61.40;;;;;;10362419;28;20073;-81
2022/08/09 12:22:58;;;;;;;1.63;1.10;;;25.90;60.70;;;;;;10362395;28;20631;-82
2022/08/09 12:28:15;;;;;;;2.25;1.00;;;25.00;62.30;;;;;;10365298;28;20529;-82
2022/08/09 12:33:17;;;;;;;2.25;1.27;;;24.60;64.40;;;;;;10367475;28;20378;-82
2022/08/09 12:38:29;;;;;;;3.80;1.15;;;24.40;64.00;;;;;;10363965;28;20053;-82
2022/08/09 12:43:30;;;;;;;1.55;1.30;;;24.20;64.70;;;;;;10365031;28;20069;-81
2022/08/09 12:48:32;;;;;;;2.92;1.20;;;24.10;64.70;;;;;;10356246;28;20025;-83
2022/08/09 12:53:38;;;;;;;1.40;1.30;;;24.10;66.50;;;;;;10362701;28;20030;-83
2022/08/09 12:58:41;;;;;;;1.58;1.17;;;24.10;65.80;;;;;;10365073;28;20414;-81
2022/08/09 13:03:42;;;;;;;3.08;1.25;;;24.20;65.50;;;;;;10365253;28;20022;-80
2022/08/09 13:08:57;;;;;;;1.88;1.00;;;24.30;64.00;;;;;;10361157;28;20033;-79
2022/08/09 13:13:58;;;;;;;5.32;1.27;;;24.40;64.50;;;;;;10364697;28;20021;-79
2022/08/09 13:18:59;;;;;;;1.58;1.10;;;24.40;65.00;;;;;;10361500;28;20038;-80
2022/08/09 13:24:01;;;;;;;2.95;1.02;;;24.50;63.20;;;;;;10363489;28;20030;-81
2022/08/09 13:29:07;;;;;;;4.13;1.35;;;24.50;63.20;;;;;;10359040;28;20061;-80
2022/08/09 13:34:09;;;;;;;2.80;1.17;;;24.50;63.80;;;;;;10360044;28;20117;-80
2022/08/09 13:39:11;;;;;;;2.42;1.17;;;24.60;67.40;;;;;;10363443;28;20062;-80
2022/08/09 13:44:11;;;;;;;3.20;1.00;;;25.00;64.10;;;;;;10361999;28;20061;-80
2022/08/09 13:49:12;;;;;;;3.17;1.10;;;25.20;63.20;;;;;;10363312;28;20113;-82
2022/08/09 13:54:13;;;;;;;6.45;1.42;;;24.80;65.30;;;;;;10355043;28;20036;-80
2022/08/09 13:59:14;;;;;;;3.20;1.30;;;24.30;64.80;;;;;;10356262;28;20061;-79
2022/08/09 14:04:15;;;;;;;2.08;1.20;;;24.20;65.40;;;;;;10359953;28;20037;-82
2022/08/09 14:09:16;;;;;;;2.42;1.20;;;24.20;65.70;;;;;;10363029;28;20034;-82
2022/08/09 14:14:17;;;;;;;4.18;1.50;;;24.10;66.10;;;;;;10362602;28;20029;-81
2022/08/09 14:19:19;;;;;;;3.80;1.65;;;24.00;66.00;;;;;;10358212;28;20118;-80
2022/08/09 14:24:19;;;;;;;2.40;1.17;;;24.10;68.20;;;;;;10362962;28;20026;-81
2022/08/09 14:29:20;;;;;;;3.08;1.30;;;24.40;68.40;;;;;;10357613;28;20033;-82
2022/08/09 14:34:21;;;;;;;3.35;1.30;;;24.60;65.90;;;;;;10361038;28;20647;-82
2022/08/09 14:39:22;;;;;;;6.75;1.40;;;24.30;65.80;;;;;;10368896;28;20040;-82
2022/08/09 14:44:23;;;;;;;4.53;1.40;;;24.20;67.10;;;;;;10366716;28;20030;-81
2022/08/09 14:49:24;;;;;;;3.03;1.50;;;24.20;65.60;;;;;;10369667;28;20402;-80
2022/08/09 14:54:26;;;;;;;2.22;1.20;;;23.90;66.00;;;;;;10364645;28;20042;-80
2022/08/09 14:59:27;;;;;;;2.90;1.15;;;23.80;65.90;;;;;;10356723;28;20022;-82
2022/08/09 15:04:27;;;;;;;2.47;1.30;;;23.70;65.60;;;;;;10369848;28;20056;-82
2022/08/09 15:09:29;;;;;;;2.63;1.40;;;23.70;65.60;;;;;;10369195;28;20532;-82
2022/08/09 15:14:30;;;;;;;3.80;1.52;;;23.60;66.30;;;;;;10363752;28;20026;-81
2022/08/09 15:19:30;;;;;;;2.35;1.38;;;23.60;66.50;;;;;;10368409;28;20033;-80
2022/08/09 15:24:31;;;;;;;2.58;1.85;;;23.50;67.20;;;;;;10368630;28;20119;-80
2022/08/09 15:29:31;;;;;;;2.08;1.15;;;23.60;67.80;;;;;;10349332;28;20038;-82
2022/08/09 15:34:32;;;;;;;5.57;3.03;;;23.50;69.30;;;;;;10359126;28;20030;-81
2022/08/09 15:39:33;;;;;;;18.92;12.27;;;23.60;68.70;;;;;;10367363;28;20030;-83
2022/08/09 15:44:36;;;;;;;36.05;22.85;;;23.50;68.80;;;;;;10363832;28;20045;-81
2022/08/09 15:49:36;;;;;;;17.10;10.77;;;23.50;68.90;;;;;;10364306;28;20026;-81
2022/08/09 15:54:37;;;;;;;16.58;9.35;;;23.40;68.70;;;;;;10360275;28;20018;-83
2022/08/09 15:59:38;;;;;;;12.77;6.25;;;23.30;69.30;;;;;;10345566;28;20473;-81
2022/08/09 16:04:39;;;;;;;25.35;16.40;;;23.20;68.90;;;;;;10368005;28;20038;-80
2022/08/09 16:09:39;;;;;;;4.90;3.15;;;23.20;68.80;;;;;;10356169;28;20058;-81
2022/08/09 16:14:40;;;;;;;9.45;4.10;;;23.10;69.10;;;;;;10363402;28;20026;-80
2022/08/09 16:19:41;;;;;;;22.30;12.50;;;23.00;70.20;;;;;;10362607;28;20022;-80
2022/08/09 16:24:41;;;;;;;6.70;3.85;;;22.90;69.80;;;;;;10360631;28;20053;-81
2022/08/09 16:29:42;;;;;;;18.17;11.63;;;22.80;70.30;;;;;;10361572;28;20029;-81
2022/08/09 16:40:46;;;;;;;3.67;1.63;;;22.70;70.30;;;;;;10360974;28;20045;-82
2022/08/09 16:45:47;;;;;;;2.85;1.67;;;22.60;70.40;;;;;;10362008;28;20064;-84
2022/08/09 16:50:47;;;;;;;3.30;1.70;;;22.60;70.40;;;;;;10359462;28;20096;-83
2022/08/09 16:55:48;;;;;;;5.28;3.67;;;22.50;69.80;;;;;;10362383;28;20406;-82
2022/08/09 17:00:49;;;;;;;2.88;1.60;;;22.40;70.40;;;;;;10362557;28;20033;-80
2022/08/09 17:05:50;;;;;;;2.78;1.80;;;22.40;70.10;;;;;;10343998;28;20764;-81
2022/08/09 17:10:51;;;;;;;4.20;2.90;;;22.30;70.90;;;;;;10363891;28;20055;-79
2022/08/09 17:15:51;;;;;;;5.75;2.38;;;22.20;71.30;;;;;;10345149;28;20492;-81
2022/08/09 17:21:48;;;;;;;4.65;1.85;;;22.10;71.90;;;;;;10363542;28;20651;-83
2022/08/09 17:26:49;;;;;;;6.68;2.58;;;22.10;72.40;;;;;;10355697;28;20072;-82
2022/08/09 17:31:49;;;;;;;5.82;2.28;;;21.90;72.50;;;;;;10362461;28;20116;-82
2022/08/09 17:36:50;;;;;;;2.53;1.77;;;21.80;72.90;;;;;;10344514;28;20049;-80
2022/08/09 17:41:50;;;;;;;7.80;5.13;;;21.70;73.20;;;;;;10363710;28;20033;-81
2022/08/09 17:46:51;;;;;;;7.78;5.53;;;21.50;74.20;;;;;;10359460;28;20482;-82
2022/08/09 17:51:52;;;;;;;7.65;4.10;;;21.00;78.50;;;;;;10360516;28;20420;-81
2022/08/09 17:56:52;;;;;;;6.25;3.30;;;20.50;80.00;;;;;;10360681;28;20112;-82
2022/08/09 18:01:53;;;;;;;7.10;3.10;;;20.00;81.60;;;;;;10360242;28;20045;-81
2022/08/09 18:06:54;;;;;;;4.07;3.05;;;19.50;82.80;;;;;;10361129;28;20079;-81
2022/08/09 18:11:55;;;;;;;10.95;3.10;;;19.10;83.70;;;;;;10342312;28;20068;-82
2022/08/09 18:16:56;;;;;;;5.68;2.70;;;18.70;85.20;;;;;;10342979;28;20077;-83
2022/08/09 18:21:57;;;;;;;5.30;2.65;;;18.40;86.00;;;;;;10358576;28;20109;-81
2022/08/09 18:26:58;;;;;;;6.13;3.03;;;18.00;87.80;;;;;;10358698;28;20030;-83
2022/08/09 18:31:59;;;;;;;6.72;4.18;;;17.70;89.10;;;;;;10361346;28;20523;-79
2022/08/09 18:37:00;;;;;;;8.23;3.55;;;17.50;90.10;;;;;;10360678;28;20075;-79
2022/08/09 18:42:04;;;;;;;6.65;2.67;;;17.40;90.60;;;;;;10358040;28;20472;-80
2022/08/09 18:47:05;;;;;;;8.07;3.25;;;17.10;91.70;;;;;;10355140;28;20125;-80
2022/08/09 18:52:06;;;;;;;8.98;3.10;;;16.90;92.50;;;;;;10359305;28;20030;-81
2022/08/09 18:57:07;;;;;;;7.97;3.28;;;16.70;93.80;;;;;;10356197;28;20394;-81
2022/08/09 19:02:07;;;;;;;6.00;3.08;;;16.60;95.10;;;;;;10352764;28;20036;-80
2022/08/09 19:07:08;;;;;;;7.57;3.63;;;16.50;96.80;;;;;;10342491;28;20021;-78
2022/08/09 19:12:09;;;;;;;40.22;29.90;;;16.40;98.40;;;;;;10352908;28;20038;-80
2022/08/09 19:17:10;;;;;;;11.60;6.80;;;16.30;99.90;;;;;;10337301;28;20094;-81
2022/08/09 19:22:11;;;;;;;11.88;5.00;;;16.20;99.90;;;;;;10364696;28;20113;-83
2022/08/09 19:27:11;;;;;;;12.38;7.10;;;16.10;99.90;;;;;;10353912;28;20033;-82
2022/08/09 19:32:12;;;;;;;22.83;13.65;;;15.90;99.90;;;;;;10364549;28;20025;-81
2022/08/09 19:37:13;;;;;;;18.60;10.90;;;15.90;99.90;;;;;;10360481;28;20099;-81
2022/08/09 19:42:14;;;;;;;16.05;12.25;;;15.90;99.90;;;;;;10356058;28;20544;-82
2022/08/09 19:47:14;;;;;;;35.90;22.17;;;15.90;99.90;;;;;;10346829;28;20084;-81
2022/08/09 19:52:15;;;;;;;12.73;6.63;;;15.90;99.90;;;;;;10364236;28;20109;-81
2022/08/09 19:57:16;;;;;;;7.65;5.38;;;15.80;99.90;;;;;;10360790;28;20469;-80
2022/08/09 20:02:16;;;;;;;10.38;6.30;;;15.70;99.90;;;;;;10357666;28;20029;-82
2022/08/09 20:07:17;;;;;;;13.95;5.43;;;15.70;99.90;;;;;;10364157;28;20026;-80
2022/08/09 20:12:18;;;;;;;7.18;4.70;;;15.60;99.90;;;;;;10366657;28;20026;-80
2022/08/09 20:17:19;;;;;;;7.15;4.38;;;15.50;99.90;;;;;;10366471;28;20030;-80
2022/08/09 20:22:20;;;;;;;9.30;5.13;;;15.40;99.90;;;;;;10363681;28;20038;-82
2022/08/09 20:27:21;;;;;;;8.82;5.00;;;15.40;99.90;;;;;;10365261;28;20040;-80
2022/08/09 20:32:21;;;;;;;11.02;4.93;;;15.30;99.90;;;;;;10359996;28;20121;-79
2022/08/09 20:37:22;;;;;;;10.27;4.95;;;15.30;99.90;;;;;;10358979;28;20477;-80
2022/08/09 20:42:23;;;;;;;12.93;8.50;;;15.10;99.90;;;;;;10364688;28;20665;-81
2022/08/09 20:47:24;;;;;;;15.55;10.07;;;15.20;99.90;;;;;;10363781;28;20032;-80
2022/08/09 20:52:26;;;;;;;12.23;7.80;;;15.10;99.90;;;;;;10362898;28;20092;-81
2022/08/09 20:57:26;;;;;;;10.35;6.55;;;15.00;99.90;;;;;;10362587;28;20056;-80
2022/08/09 21:02:27;;;;;;;11.75;6.97;;;14.90;99.90;;;;;;10363931;28;20045;-79
2022/08/09 21:07:28;;;;;;;14.80;9.05;;;14.80;99.90;;;;;;10361413;28;20022;-80
2022/08/09 21:12:31;;;;;;;16.85;10.25;;;14.70;99.90;;;;;;10359629;28;20038;-79
2022/08/09 21:17:31;;;;;;;13.98;6.55;;;14.70;99.90;;;;;;10362750;28;20749;-80
2022/08/09 21:22:32;;;;;;;13.10;6.90;;;14.60;99.90;;;;;;10363825;28;20034;-82
2022/08/09 21:27:32;;;;;;;10.60;6.65;;;14.60;99.90;;;;;;10357115;28;20041;-80
2022/08/09 21:32:33;;;;;;;9.93;7.07;;;14.50;99.90;;;;;;10355564;28;20394;-80
2022/08/09 21:37:34;;;;;;;14.77;7.75;;;14.40;99.90;;;;;;10364467;28;20037;-80
2022/08/09 21:42:34;;;;;;;10.48;7.47;;;14.40;99.90;;;;;;10363105;28;20463;-80
2022/08/09 21:47:36;;;;;;;7.85;5.60;;;14.30;99.90;;;;;;10358810;28;20038;-82
2022/08/09 21:52:36;;;;;;;13.18;7.03;;;14.20;99.90;;;;;;10363612;28;20038;-80
2022/08/09 21:57:37;;;;;;;8.05;5.93;;;14.10;99.90;;;;;;10363068;28;20497;-80
2022/08/09 22:02:38;;;;;;;12.30;7.25;;;14.10;99.90;;;;;;10358211;28;20498;-82
2022/08/09 22:07:39;;;;;;;12.13;6.70;;;14.00;99.90;;;;;;10363842;28;20030;-80
2022/08/09 22:12:40;;;;;;;13.40;7.10;;;14.00;99.90;;;;;;10361695;28;20038;-81
2022/08/09 22:17:41;;;;;;;12.27;6.57;;;14.00;99.90;;;;;;10359885;28;20042;-80
2022/08/09 22:22:42;;;;;;;17.83;8.52;;;13.90;99.90;;;;;;10361923;28;20815;-80
2022/08/09 22:27:43;;;;;;;29.80;11.25;;;13.90;99.90;;;;;;10356796;28;20034;-80
2022/08/09 22:32:43;;;;;;;32.05;17.15;;;13.80;99.90;;;;;;10358774;28;20084;-80
2022/08/09 22:37:44;;;;;;;39.17;23.88;;;13.70;99.90;;;;;;10360387;28;20030;-80
2022/08/09 22:42:44;;;;;;;27.00;14.00;;;13.80;99.90;;;;;;10361653;28;20079;-80
2022/08/09 22:47:45;;;;;;;44.72;21.58;;;13.80;99.90;;;;;;10354635;28;20050;-81
2022/08/09 22:52:45;;;;;;;93.28;44.05;;;14.00;99.90;;;;;;10355291;28;20056;-80
2022/08/09 22:57:46;;;;;;;55.83;26.70;;;14.00;99.90;;;;;;10365540;28;20061;-82
2022/08/09 23:02:47;;;;;;;128.50;64.78;;;14.20;99.90;;;;;;10369629;28;20087;-81
2022/08/09 23:13:06;;;;;;;0.80;0.80;;;14.20;99.90;;;;;;10366218;28;20441;-80
2022/08/09 23:18:07;;;;;;;3.47;2.13;;;14.10;99.90;;;;;;10362772;28;20041;-80
2022/08/09 23:23:07;;;;;;;1.40;1.35;;;14.10;99.90;;;;;;10369714;28;20041;-80
2022/08/09 23:28:08;;;;;;;25.55;17.65;;;14.10;99.90;;;;;;10367546;28;20034;-80
2022/08/09 23:33:08;;;;;;;11.10;7.97;;;14.00;99.90;;;;;;10369034;28;20061;-79
2022/08/09 23:38:09;;;;;;;16.10;10.13;;;14.00;99.90;;;;;;10369017;28;20061;-80
2022/08/09 23:43:10;;;;;;;20.23;11.95;;;14.00;99.90;;;;;;10368989;28;20395;-80
2022/08/09 23:48:10;;;;;;;28.65;13.40;;;14.10;99.90;;;;;;10368352;28;20433;-80
2022/08/09 23:53:11;;;;;;;22.45;11.75;;;14.10;99.90;;;;;;10363684;28;20041;-80
2022/08/09 23:58:12;;;;;;;16.35;8.98;;;13.90;99.90;;;;;;10366162;28;20053;-80
